Time,TemperatureF,DewpointF,PressureIn,WindDirection,WindDirectionDegrees,WindSpeedMPH,WindSpeedGustMPH,Humidity,HourlyPrecipIn,Conditions,Clouds,dailyrainin,SoftwareType,DateUTC
2013-06-02 00:01:00,71.2,70.0,29.93,West,269,0.0,1.0,97,0.00,,,0.85,weatherlink.com 1.10,2013-06-02 04:01:00,
2013-06-02 00:16:00,71.1,70.0,29.93,West,269,0.0,0.0,97,0.00,,,0.00,weatherlink.com 1.10,2013-06-02 04:16:00,
2013-06-02 00:31:00,70.8,70.0,29.94,West,269,0.0,0.0,97,0.00,,,0.00,weatherlink.com 1.10,2013-06-02 04:31:00,
2013-06-02 00:46:00,70.4,70.0,29.94,West,269,0.0,0.0,97,0.00,,,0.00,weatherlink.com 1.10,2013-06-02 04:46:00,
2013-06-02 01:01:00,69.7,69.0,29.95,West,270,0.0,1.0,97,0.00,,,0.00,weatherlink.com 1.10,2013-06-02 05:01:00,
2013-06-02 01:16:00,69.2,68.0,29.95,West,270,0.0,0.0,97,0.00,,,0.00,weatherlink.com 1.10,2013-06-02 05:16:00,
2013-06-02 01:31:00,68.9,68.0,29.96,West,270,0.0,0.0,97,0.00,,,0.00,weatherlink.com 1.10,2013-06-02 05:31:00,
2013-06-02 01:46:00,68.8,68.0,29.96,West,270,0.0,0.0,97,0.00,,,0.00,weatherlink.com 1.10,2013-06-02 05:46:00,
2013-06-02 02:01:00,68.9,68.0,29.95,NW,321,0.0,0.0,97,0.00,,,0.00,weatherlink.com 1.10,2013-06-02 06:01:00,
2013-06-02 02:16:00,68.5,68.0,29.95,NW,320,0.0,0.0,97,0.00,,,0.00,weatherlink.com 1.10,2013-06-02 06:16:00,
2013-06-02 02:31:00,68.4,68.0,29.94,NW,321,0.0,0.0,98,0.00,,,0.00,weatherlink.com 1.10,2013-06-02 06:31:00,
2013-06-02 02:46:00,68.3,68.0,29.94,NW,321,0.0,0.0,98,0.00,,,0.00,weatherlink.com 1.10,2013-06-02 06:46:00,
2013-06-02 03:01:00,68.2,68.0,29.93,NW,321,0.0,0.0,98,0.00,,,0.00,weatherlink.com 1.10,2013-06-02 07:01:00,
2013-06-02 03:16:00,68.4,68.0,29.93,NW,321,0.0,0.0,98,0.00,,,0.00,weatherlink.com 1.10,2013-06-02 07:16:00,
2013-06-02 03:31:00,68.4,68.0,29.92,NW,321,0.0,0.0,98,0.00,,,0.00,weatherlink.com 1.10,2013-06-02 07:31:00,
2013-06-02 03:46:00,68.3,68.0,29.92,NW,321,0.0,0.0,98,0.00,,,0.00,weatherlink.com 1.10,2013-06-02 07:46:00,
2013-06-02 04:01:00,68.2,68.0,29.93,NW,321,0.0,0.0,98,0.00,,,0.00,weatherlink.com 1.10,2013-06-02 08:01:00,
2013-06-02 04:16:00,68.4,68.0,29.93,NW,321,0.0,0.0,98,0.06,,,0.06,weatherlink.com 1.10,2013-06-02 08:16:00,
2013-06-02 04:31:00,68.6,68.0,29.92,NW,325,0.0,0.0,98,0.15,,,0.15,weatherlink.com 1.10,2013-06-02 08:31:00,
2013-06-02 04:46:00,68.8,68.0,29.92,NW,325,0.0,0.0,98,0.23,,,0.23,weatherlink.com 1.10,2013-06-02 08:46:00,
2013-06-02 05:01:00,68.8,68.0,29.91,NW,325,0.0,0.0,98,0.23,,,0.23,weatherlink.com 1.10,2013-06-02 09:01:00,
2013-06-02 05:17:00,68.9,68.0,29.90,NW,325,0.0,0.0,98,0.17,,,0.24,weatherlink.com 1.10,2013-06-02 09:17:00,
2013-06-02 05:32:00,69.0,69.0,29.91,NW,325,0.0,0.0,98,0.08,,,0.24,weatherlink.com 1.10,2013-06-02 09:32:00,
2013-06-02 05:47:00,69.1,69.0,29.90,NW,325,0.0,0.0,98,0.01,,,0.24,weatherlink.com 1.10,2013-06-02 09:47:00,
2013-06-02 06:02:00,69.3,69.0,29.89,NW,325,0.0,0.0,98,0.01,,,0.24,weatherlink.com 1.10,2013-06-02 10:02:00,
2013-06-02 06:17:00,69.4,69.0,29.89,NW,325,0.0,0.0,98,0.00,,,0.24,weatherlink.com 1.10,2013-06-02 10:17:00,
2013-06-02 06:34:00,69.6,69.0,29.90,North,1,0.0,1.0,98,0.11,,,0.35,weatherlink.com 1.10,2013-06-02 10:34:00,
2013-06-02 06:47:00,69.7,69.0,29.91,North,2,0.0,1.0,98,0.19,,,0.43,weatherlink.com 1.10,2013-06-02 10:47:00,
2013-06-02 07:02:00,69.6,69.0,29.90,West,263,0.0,2.0,98,0.37,,,0.61,weatherlink.com 1.10,2013-06-02 11:02:00,
2013-06-02 07:17:00,69.7,69.0,29.90,West,263,0.0,0.0,98,0.38,,,0.62,weatherlink.com 1.10,2013-06-02 11:17:00,
2013-06-02 07:32:00,69.7,69.0,29.89,NW,304,0.0,0.0,98,0.28,,,0.62,weatherlink.com 1.10,2013-06-02 11:32:00,
2013-06-02 07:47:00,69.8,69.0,29.90,NW,304,0.0,0.0,98,0.19,,,0.62,weatherlink.com 1.10,2013-06-02 11:47:00,
2013-06-02 08:02:00,69.9,69.0,29.89,NW,305,0.0,1.0,98,0.01,,,0.62,weatherlink.com 1.10,2013-06-02 12:02:00,
2013-06-02 08:17:00,69.8,69.0,29.89,West,264,0.0,1.0,98,0.06,,,0.68,weatherlink.com 1.10,2013-06-02 12:17:00,
2013-06-02 08:32:00,69.7,69.0,29.89,West,259,0.0,1.0,98,0.06,,,0.68,weatherlink.com 1.10,2013-06-02 12:32:00,
2013-06-02 08:47:00,69.6,69.0,29.90,WNW,286,1.0,1.0,98,0.06,,,0.68,weatherlink.com 1.10,2013-06-02 12:47:00,
2013-06-02 09:02:00,69.7,69.0,29.91,WNW,285,0.0,0.0,98,0.06,,,0.68,weatherlink.com 1.10,2013-06-02 13:02:00,
2013-06-02 09:17:00,69.7,69.0,29.90,WNW,286,0.0,0.0,98,0.00,,,0.68,weatherlink.com 1.10,2013-06-02 13:17:00,
2013-06-02 09:32:00,70.0,69.0,29.91,SSE,151,0.0,3.0,98,0.04,,,0.72,weatherlink.com 1.10,2013-06-02 13:32:00,
2013-06-02 09:47:00,69.6,69.0,29.91,SE,128,0.0,1.0,98,0.05,,,0.73,weatherlink.com 1.10,2013-06-02 13:47:00,
2013-06-02 10:02:00,69.8,69.0,29.91,SE,128,0.0,1.0,98,0.05,,,0.73,weatherlink.com 1.10,2013-06-02 14:02:00,
2013-06-02 10:19:00,70.3,70.0,29.91,SE,128,0.0,0.0,98,0.06,,,0.74,weatherlink.com 1.10,2013-06-02 14:19:00,
2013-06-02 10:32:00,70.7,70.0,29.91,SE,127,0.0,1.0,98,0.03,,,0.75,weatherlink.com 1.10,2013-06-02 14:32:00,
2013-06-02 10:47:00,71.0,70.0,29.91,West,259,0.0,1.0,97,0.02,,,0.75,weatherlink.com 1.10,2013-06-02 14:47:00,
2013-06-02 11:02:00,72.2,71.0,29.91,East,101,0.0,1.0,97,0.01,,,0.75,weatherlink.com 1.10,2013-06-02 15:02:00,
2013-06-02 11:17:00,74.3,73.0,29.92,WNW,300,0.0,2.0,94,0.01,,,0.75,weatherlink.com 1.10,2013-06-02 15:17:00,
2013-06-02 11:32:00,74.7,71.0,29.91,West,261,0.0,1.0,88,0.00,,,0.75,weatherlink.com 1.10,2013-06-02 15:32:00,
2013-06-02 11:47:00,74.9,71.0,29.91,NE,51,0.0,0.0,88,0.00,,,0.75,weatherlink.com 1.10,2013-06-02 15:47:00,
2013-06-02 12:02:00,75.8,72.0,29.91,NE,51,0.0,0.0,89,0.00,,,0.75,weatherlink.com 1.10,2013-06-02 16:02:00,
2013-06-02 12:17:00,74.7,71.0,29.91,NE,55,0.0,1.0,89,0.00,,,0.75,weatherlink.com 1.10,2013-06-02 16:17:00,
2013-06-02 12:32:00,75.4,72.0,29.91,NE,50,0.0,0.0,88,0.00,,,0.75,weatherlink.com 1.10,2013-06-02 16:32:00,
2013-06-02 12:47:00,76.8,71.0,29.90,West,275,0.0,2.0,83,0.00,,,0.75,weatherlink.com 1.10,2013-06-02 16:47:00,
2013-06-02 13:02:00,78.3,72.0,29.91,WSW,252,0.0,2.0,80,0.00,,,0.75,weatherlink.com 1.10,2013-06-02 17:02:00,
2013-06-02 13:17:00,77.6,71.0,29.90,North,6,0.0,1.0,81,0.00,,,0.75,weatherlink.com 1.10,2013-06-02 17:17:00,
2013-06-02 13:32:00,77.6,72.0,29.90,NE,34,0.0,1.0,83,0.00,,,0.75,weatherlink.com 1.10,2013-06-02 17:32:00,
2013-06-02 13:47:00,78.3,72.0,29.90,East,95,0.0,1.0,82,0.00,,,0.75,weatherlink.com 1.10,2013-06-02 17:47:00,
2013-06-02 14:03:00,79.6,72.0,29.90,WSW,256,0.0,2.0,78,0.00,,,0.75,weatherlink.com 1.10,2013-06-02 18:03:00,
2013-06-02 14:17:00,79.7,72.0,29.90,West,279,0.0,1.0,76,0.00,,,0.75,weatherlink.com 1.10,2013-06-02 18:17:00,
2013-06-02 14:32:00,79.9,72.0,29.89,North,349,0.0,1.0,76,0.00,,,0.75,weatherlink.com 1.10,2013-06-02 18:32:00,
2013-06-02 14:47:00,80.5,72.0,29.89,ESE,118,0.0,1.0,76,0.00,,,0.75,weatherlink.com 1.10,2013-06-02 18:47:00,
2013-06-02 15:02:00,79.9,73.0,29.88,East,79,0.0,2.0,79,0.00,,,0.75,weatherlink.com 1.10,2013-06-02 19:02:00,
2013-06-02 15:17:00,81.3,72.0,29.88,NNE,16,0.0,1.0,73,0.00,,,0.75,weatherlink.com 1.10,2013-06-02 19:17:00,
2013-06-02 15:32:00,81.7,71.0,29.88,SE,130,1.0,2.0,70,0.00,,,0.75,weatherlink.com 1.10,2013-06-02 19:32:00,
2013-06-02 15:47:00,82.3,69.0,29.88,SSE,167,0.0,1.0,64,0.00,,,0.75,weatherlink.com 1.10,2013-06-02 19:47:00,
2013-06-02 16:02:00,81.3,70.0,29.88,ESE,117,0.0,2.0,68,0.00,,,0.75,weatherlink.com 1.10,2013-06-02 20:02:00,
2013-06-02 16:17:00,79.8,71.0,29.87,ESE,110,0.0,1.0,75,0.00,,,0.75,weatherlink.com 1.10,2013-06-02 20:17:00,
2013-06-02 16:32:00,80.6,72.0,29.87,SE,132,0.0,1.0,74,0.00,,,0.75,weatherlink.com 1.10,2013-06-02 20:32:00,
2013-06-02 16:48:00,82.1,72.0,29.86,NE,36,0.0,1.0,71,0.00,,,0.75,weatherlink.com 1.10,2013-06-02 20:48:00,
2013-06-02 17:03:00,82.0,70.0,29.86,West,267,0.0,1.0,68,0.00,,,0.75,weatherlink.com 1.10,2013-06-02 21:03:00,
2013-06-02 17:18:00,82.1,71.0,29.85,East,80,0.0,4.0,68,0.00,,,0.75,weatherlink.com 1.10,2013-06-02 21:18:00,
2013-06-02 17:33:00,80.9,69.0,29.85,ENE,78,0.0,2.0,68,0.00,,,0.75,weatherlink.com 1.10,2013-06-02 21:33:00,
2013-06-02 17:48:00,80.3,70.0,29.84,ESE,106,0.0,1.0,71,0.00,,,0.75,weatherlink.com 1.10,2013-06-02 21:48:00,
2013-06-02 18:03:00,79.8,70.0,29.84,ESE,119,0.0,2.0,73,0.00,,,0.75,weatherlink.com 1.10,2013-06-02 22:03:00,
2013-06-02 18:18:00,78.8,69.0,29.84,East,79,0.0,1.0,72,0.00,,,0.75,weatherlink.com 1.10,2013-06-02 22:18:00,
2013-06-02 18:33:00,78.1,70.0,29.84,East,81,0.0,2.0,76,0.00,,,0.75,weatherlink.com 1.10,2013-06-02 22:33:00,
2013-06-02 18:48:00,77.7,71.0,29.85,East,81,0.0,1.0,79,0.00,,,0.75,weatherlink.com 1.10,2013-06-02 22:48:00,
2013-06-02 19:03:00,78.1,71.0,29.85,ENE,68,0.0,1.0,78,0.00,,,0.75,weatherlink.com 1.10,2013-06-02 23:03:00,
2013-06-02 19:18:00,78.1,70.0,29.86,ENE,76,0.0,1.0,77,0.00,,,0.75,weatherlink.com 1.10,2013-06-02 23:18:00,
2013-06-02 19:33:00,78.0,71.0,29.86,ENE,76,0.0,0.0,79,0.00,,,0.75,weatherlink.com 1.10,2013-06-02 23:33:00,
2013-06-02 19:48:00,76.7,71.0,29.86,ENE,75,0.0,1.0,81,0.00,,,0.75,weatherlink.com 1.10,2013-06-02 23:48:00,
2013-06-02 20:03:00,75.6,70.0,29.86,ENE,75,0.0,1.0,83,0.00,,,0.75,weatherlink.com 1.10,2013-06-03 00:03:00,
2013-06-02 20:18:00,74.5,69.0,29.87,ENE,76,0.0,1.0,82,0.00,,,0.75,weatherlink.com 1.10,2013-06-03 00:18:00,
2013-06-02 20:33:00,73.7,69.0,29.87,ENE,76,0.0,0.0,84,0.00,,,0.75,weatherlink.com 1.10,2013-06-03 00:33:00,
2013-06-02 20:48:00,73.2,69.0,29.88,ENE,76,0.0,0.0,86,0.00,,,0.75,weatherlink.com 1.10,2013-06-03 00:48:00,
2013-06-02 21:03:00,72.7,69.0,29.88,ENE,76,0.0,0.0,88,0.00,,,0.75,weatherlink.com 1.10,2013-06-03 01:03:00,
2013-06-02 21:18:00,72.4,68.0,29.88,ENE,75,0.0,0.0,87,0.00,,,0.75,weatherlink.com 1.10,2013-06-03 01:18:00,
2013-06-02 21:33:00,71.9,68.0,29.89,ENE,75,0.0,1.0,87,0.00,,,0.75,weatherlink.com 1.10,2013-06-03 01:33:00,
2013-06-02 21:48:00,71.3,68.0,29.89,ENE,76,0.0,0.0,88,0.00,,,0.75,weatherlink.com 1.10,2013-06-03 01:48:00,
2013-06-02 22:03:00,70.3,67.0,29.89,ENE,76,0.0,0.0,90,0.00,,,0.75,weatherlink.com 1.10,2013-06-03 02:03:00,
2013-06-02 22:18:00,69.5,67.0,29.89,ENE,76,0.0,0.0,92,0.00,,,0.75,weatherlink.com 1.10,2013-06-03 02:18:00,
2013-06-02 22:33:00,68.8,67.0,29.89,ENE,76,0.0,0.0,93,0.00,,,0.75,weatherlink.com 1.10,2013-06-03 02:33:00,
2013-06-02 22:48:00,68.4,67.0,29.89,ENE,76,0.0,0.0,94,0.00,,,0.75,weatherlink.com 1.10,2013-06-03 02:48:00,
2013-06-02 23:03:00,68.1,67.0,29.89,ENE,76,0.0,0.0,95,0.00,,,0.75,weatherlink.com 1.10,2013-06-03 03:03:00,
2013-06-02 23:18:00,67.6,66.0,29.89,ENE,76,0.0,0.0,95,0.00,,,0.75,weatherlink.com 1.10,2013-06-03 03:18:00,
2013-06-02 23:33:00,67.3,66.0,29.89,ENE,76,0.0,0.0,95,0.00,,,0.75,weatherlink.com 1.10,2013-06-03 03:33:00,
2013-06-02 23:48:00,67.0,66.0,29.89,ENE,76,0.0,0.0,96,0.00,,,0.75,weatherlink.com 1.10,2013-06-03 03:48:00,